createdAt,value
2023-04-25T00:01:50.177Z,4.10
2023-04-25T00:04:16.966Z,4.53
2023-04-25T00:06:43.738Z,3.33
2023-04-25T00:09:11.935Z,4.10
2023-04-25T00:11:38.886Z,3.80
2023-04-25T00:14:06.006Z,4.65
2023-04-25T00:16:34.989Z,3.47
2023-04-25T00:19:03.999Z,5.03
2023-04-25T00:21:32.610Z,4.10
2023-04-25T00:26:26.078Z,3.67
2023-04-25T00:28:55.759Z,3.63
2023-04-25T00:31:23.334Z,3.42
2023-04-25T00:33:50.022Z,3.60
2023-04-25T00:36:16.838Z,3.45
2023-04-25T00:38:43.366Z,3.60
2023-04-25T00:41:09.911Z,4.18
2023-04-25T00:43:37.822Z,4.60
2023-04-25T00:46:04.666Z,3.30
2023-04-25T00:48:31.160Z,3.30
2023-04-25T00:51:01.021Z,4.10
2023-04-25T00:53:28.948Z,3.55
2023-04-25T00:55:56.255Z,3.08
2023-04-25T00:58:23.335Z,3.72
2023-04-25T01:00:51.570Z,3.47
2023-04-25T01:03:20.841Z,3.63
2023-04-25T01:05:49.069Z,3.10
2023-04-25T01:08:16.060Z,3.67
2023-04-25T01:10:42.626Z,3.25
2023-04-25T01:13:09.295Z,4.05
2023-04-25T01:15:36.907Z,3.72
2023-04-25T01:18:04.740Z,3.33
2023-04-25T01:20:33.106Z,3.20
2023-04-25T01:22:59.851Z,3.30
2023-04-25T01:25:26.414Z,3.20
2023-04-25T01:27:53.140Z,3.85
2023-04-25T01:30:19.777Z,3.50
2023-04-25T01:32:46.602Z,3.40
2023-04-25T01:35:13.271Z,3.17
2023-04-25T01:37:41.131Z,4.10
2023-04-25T01:40:09.154Z,4.68
2023-04-25T01:42:37.018Z,3.05
2023-04-25T01:45:04.060Z,3.83
2023-04-25T01:47:32.480Z,2.75
2023-04-25T01:49:59.691Z,2.60
2023-04-25T01:52:26.254Z,2.95
2023-04-25T01:54:54.309Z,3.15
2023-04-25T01:57:21.098Z,4.10
2023-04-25T01:59:47.795Z,2.55
2023-04-25T02:02:14.350Z,3.30
2023-04-25T02:04:41.078Z,3.15
2023-04-25T02:07:07.838Z,3.47
2023-04-25T02:09:34.366Z,2.95
2023-04-25T02:12:01.436Z,2.97
2023-04-25T02:14:27.991Z,3.08
2023-04-25T02:16:55.213Z,3.30
2023-04-25T02:19:21.832Z,2.80
2023-04-25T02:21:48.359Z,2.10
2023-04-25T02:24:14.842Z,2.22
2023-04-25T02:26:41.354Z,2.92
2023-04-25T02:29:08.152Z,3.05
2023-04-25T02:31:34.690Z,2.60
2023-04-25T02:34:01.210Z,2.92
2023-04-25T02:36:27.800Z,3.47
2023-04-25T02:38:54.453Z,2.60
2023-04-25T02:41:21.780Z,2.65
2023-04-25T02:43:48.844Z,3.10
2023-04-25T02:46:19.047Z,3.25
2023-04-25T02:48:47.426Z,2.90
2023-04-25T02:51:14.024Z,2.75
2023-04-25T02:53:40.564Z,2.53
2023-04-25T02:56:07.220Z,3.15
2023-04-25T02:58:33.763Z,2.80
2023-04-25T03:01:00.447Z,3.83
2023-04-25T03:03:27.136Z,3.47
2023-04-25T03:05:53.831Z,2.85
2023-04-25T03:08:20.432Z,3.70
2023-04-25T03:10:47.079Z,2.78
2023-04-25T03:13:13.560Z,3.15
2023-04-25T03:15:40.042Z,3.30
2023-04-25T03:18:06.812Z,3.90
2023-04-25T03:20:33.340Z,3.42
2023-04-25T03:22:59.913Z,2.65
2023-04-25T03:25:26.561Z,3.58
2023-04-25T03:27:53.092Z,2.90
2023-04-25T03:30:19.783Z,2.38
2023-04-25T03:32:46.399Z,2.50
2023-04-25T03:35:12.944Z,1.88
2023-04-25T03:37:41.487Z,2.63
2023-04-25T03:40:08.641Z,2.33
2023-04-25T03:42:35.196Z,2.25
2023-04-25T03:45:01.796Z,2.50
2023-04-25T03:47:28.357Z,3.53
2023-04-25T03:49:54.892Z,2.60
2023-04-25T03:52:21.398Z,2.42
2023-04-25T03:54:47.899Z,2.30
2023-04-25T03:57:14.566Z,2.88
2023-04-25T03:59:41.090Z,2.03
2023-04-25T04:02:07.658Z,2.33
2023-04-25T04:04:34.500Z,2.60
2023-04-25T04:07:01.254Z,2.25
2023-04-25T04:09:28.558Z,2.72
2023-04-25T04:11:55.086Z,3.22
2023-04-25T04:14:21.873Z,2.75
2023-04-25T04:16:48.459Z,2.83
2023-04-25T04:19:15.436Z,2.22
2023-04-25T04:21:41.924Z,2.42
2023-04-25T04:24:08.590Z,2.58
2023-04-25T04:26:35.482Z,2.28
2023-04-25T04:29:02.369Z,2.63
2023-04-25T04:31:28.912Z,2.45
2023-04-25T04:33:55.588Z,2.83
2023-04-25T04:36:22.986Z,2.22
2023-04-25T04:38:50.035Z,2.83
2023-04-25T04:41:17.196Z,2.88
2023-04-25T04:43:44.350Z,3.17
2023-04-25T04:46:11.478Z,2.72
2023-04-25T04:48:38.329Z,2.63
2023-04-25T04:51:04.908Z,3.58
2023-04-25T04:53:31.428Z,2.80
2023-04-25T04:55:57.988Z,3.17
2023-04-25T04:58:24.508Z,2.90
2023-04-25T05:00:51.403Z,2.50
2023-04-25T05:03:18.093Z,2.88
2023-04-25T05:05:44.860Z,3.60
2023-04-25T05:08:11.361Z,3.38
2023-04-25T05:10:37.943Z,2.92
2023-04-25T05:13:04.433Z,2.90
2023-04-25T05:15:30.948Z,2.63
2023-04-25T05:17:57.714Z,2.30
2023-04-25T05:20:24.356Z,2.95
2023-04-25T05:22:50.870Z,3.10
2023-04-25T05:25:17.490Z,3.10
2023-04-25T05:27:44.048Z,3.55
2023-04-25T05:30:11.009Z,3.00
2023-04-25T05:32:37.894Z,2.97
2023-04-25T05:35:04.830Z,2.83
2023-04-25T05:37:32.184Z,2.13
2023-04-25T05:39:58.673Z,1.90
2023-04-25T05:42:25.155Z,2.38
2023-04-25T05:44:51.757Z,2.10
2023-04-25T05:47:18.271Z,2.00
2023-04-25T05:49:44.811Z,1.85
2023-04-25T05:52:11.309Z,1.55
2023-04-25T05:54:37.830Z,2.05
2023-04-25T05:57:04.346Z,2.00
2023-04-25T05:59:30.886Z,1.67
2023-04-25T06:01:57.480Z,2.10
2023-04-25T06:04:24.234Z,1.92
2023-04-25T06:06:51.180Z,2.30
2023-04-25T06:09:17.721Z,1.90
2023-04-25T06:11:44.267Z,1.90
2023-04-25T06:14:10.972Z,2.00
2023-04-25T06:16:37.723Z,1.60
2023-04-25T06:19:04.317Z,1.50
2023-04-25T06:21:30.797Z,2.80
2023-04-25T06:23:57.292Z,1.73
2023-04-25T06:26:23.858Z,1.65
2023-04-25T06:28:50.527Z,3.70
2023-04-25T06:31:17.164Z,1.70
2023-04-25T06:33:43.903Z,2.13
2023-04-25T06:36:10.830Z,2.15
2023-04-25T06:38:37.412Z,1.83
2023-04-25T06:41:04.035Z,1.88
2023-04-25T06:43:34.089Z,1.77
2023-04-25T06:46:01.628Z,1.98
2023-04-25T06:48:28.572Z,2.40
2023-04-25T06:50:55.378Z,2.08
2023-04-25T06:53:21.970Z,1.83
2023-04-25T06:55:48.519Z,2.15
2023-04-25T06:58:15.389Z,2.55
2023-04-25T07:00:41.945Z,1.92
2023-04-25T07:03:08.545Z,2.65
2023-04-25T07:05:35.199Z,2.45
2023-04-25T07:08:01.797Z,1.65
2023-04-25T07:10:28.715Z,2.25
2023-04-25T07:12:55.296Z,2.28
2023-04-25T07:15:21.872Z,1.90
2023-04-25T07:17:48.376Z,1.60
2023-04-25T07:20:14.984Z,1.80
2023-04-25T07:22:41.498Z,1.58
2023-04-25T07:25:09.564Z,1.30
2023-04-25T07:27:36.217Z,1.25
2023-04-25T07:30:04.528Z,2.30
2023-04-25T07:32:31.305Z,1.77
2023-04-25T07:34:57.817Z,2.30
2023-04-25T07:37:24.355Z,2.22
2023-04-25T07:39:50.865Z,2.40
2023-04-25T07:42:17.388Z,1.42
2023-04-25T07:44:43.987Z,1.90
2023-04-25T07:47:11.250Z,1.88
2023-04-25T07:49:38.451Z,1.30
2023-04-25T07:52:07.044Z,1.40
2023-04-25T07:54:33.638Z,1.48
2023-04-25T07:57:00.760Z,1.30
2023-04-25T07:59:29.764Z,1.20
2023-04-25T08:01:58.292Z,1.40
2023-04-25T08:04:25.190Z,1.48
2023-04-25T08:06:51.819Z,1.25
2023-04-25T08:09:18.340Z,1.55
2023-04-25T08:11:44.892Z,1.80
2023-04-25T08:14:12.487Z,1.48
2023-04-25T08:16:39.025Z,1.35
2023-04-25T08:19:06.026Z,1.13
2023-04-25T08:21:33.940Z,1.92
2023-04-25T08:24:00.871Z,0.98
2023-04-25T08:26:27.487Z,0.93
2023-04-25T08:28:54.148Z,0.90
2023-04-25T08:31:20.765Z,1.30
2023-04-25T08:33:47.661Z,1.40
2023-04-25T08:36:17.315Z,1.13
2023-04-25T08:38:48.632Z,1.50
2023-04-25T08:41:16.318Z,1.02
2023-04-25T08:43:44.940Z,1.30
2023-04-25T08:46:13.192Z,1.48
2023-04-25T08:48:41.785Z,1.10
2023-04-25T08:53:38.947Z,1.60
2023-04-25T08:56:07.140Z,1.63
2023-04-25T08:58:33.929Z,1.33
2023-04-25T09:01:01.131Z,1.70
2023-04-25T09:03:28.180Z,1.83
2023-04-25T09:05:55.093Z,2.15
2023-04-25T09:08:21.691Z,2.15
2023-04-25T09:10:48.231Z,1.95
2023-04-25T09:13:18.999Z,1.75
2023-04-25T09:15:53.749Z,1.75
2023-04-25T09:18:29.800Z,1.13
2023-04-25T09:21:12.969Z,1.02
2023-04-25T09:23:51.247Z,1.92
2023-04-25T09:26:22.367Z,1.52
2023-04-25T09:28:49.027Z,2.20
2023-04-25T09:31:27.671Z,2.08
2023-04-25T09:34:01.933Z,1.70
2023-04-25T09:36:29.273Z,1.83
2023-04-25T09:38:56.174Z,1.30
2023-04-25T09:41:26.420Z,1.60
2023-04-25T09:43:52.931Z,1.92
2023-04-25T09:46:22.263Z,1.60
2023-04-25T09:48:51.087Z,1.73
2023-04-25T09:51:17.789Z,2.00
2023-04-25T09:53:52.186Z,2.15
2023-04-25T09:56:21.142Z,1.55
2023-04-25T09:58:48.575Z,1.48
2023-04-25T10:01:15.832Z,1.80
2023-04-25T10:03:43.477Z,1.42
2023-04-25T10:06:13.705Z,1.50
2023-04-25T10:08:40.297Z,1.40
2023-04-25T10:11:09.172Z,1.80
2023-04-25T10:13:36.773Z,1.70
2023-04-25T10:16:04.977Z,2.10
2023-04-25T10:18:33.829Z,1.73
2023-04-25T10:21:05.954Z,1.63
2023-04-25T10:23:33.313Z,1.90
2023-04-25T10:25:59.878Z,1.80
2023-04-25T10:28:26.675Z,2.28
2023-04-25T10:31:01.288Z,1.58
2023-04-25T10:33:43.051Z,1.90
2023-04-25T10:36:13.104Z,2.15
2023-04-25T10:38:40.358Z,2.22
2023-04-25T10:41:11.832Z,2.28
2023-04-25T10:43:39.648Z,1.98
2023-04-25T10:46:28.418Z,1.75
2023-04-25T10:48:59.555Z,2.00
2023-04-25T10:51:30.800Z,1.60
2023-04-25T10:54:05.051Z,2.30
2023-04-25T10:56:41.505Z,2.20
2023-04-25T10:59:08.024Z,1.85
2023-04-25T11:01:45.589Z,1.98
2023-04-25T11:04:22.554Z,2.05
2023-04-25T11:07:06.481Z,1.67
2023-04-25T11:09:38.944Z,1.83
2023-04-25T11:12:06.087Z,2.00
2023-04-25T11:14:32.807Z,2.10
2023-04-25T11:17:01.035Z,1.80
2023-04-25T11:19:29.295Z,1.67
2023-04-25T11:21:56.984Z,2.20
2023-04-25T11:24:30.719Z,1.88
2023-04-25T11:26:58.989Z,1.48
2023-04-25T11:29:29.802Z,1.77
2023-04-25T11:31:58.988Z,1.70
2023-04-25T11:34:26.797Z,2.28
2023-04-25T11:36:54.318Z,1.70
2023-04-25T11:39:21.122Z,1.83
2023-04-25T11:41:48.309Z,1.60
2023-04-25T11:44:18.838Z,1.73
2023-04-25T11:46:45.743Z,1.38
2023-04-25T11:49:12.888Z,1.50
2023-04-25T11:51:42.867Z,1.45
2023-04-25T11:54:09.435Z,1.15
2023-04-25T11:56:36.113Z,1.38
2023-04-25T11:59:04.891Z,1.33
2023-04-25T12:01:38.961Z,1.70
2023-04-25T12:04:16.253Z,1.42
2023-04-25T12:06:44.266Z,1.67
2023-04-25T12:09:14.857Z,2.08
2023-04-25T12:11:49.419Z,1.92
2023-04-25T12:16:54.985Z,2.08
2023-04-25T12:19:21.954Z,2.13
2023-04-25T12:21:58.020Z,2.28
2023-04-25T12:24:28.236Z,1.70
2023-04-25T12:27:06.050Z,1.92
2023-04-25T12:29:41.876Z,1.50
2023-04-25T12:32:14.856Z,1.85
2023-04-25T12:34:41.633Z,1.40
2023-04-25T12:37:08.169Z,1.80
2023-04-25T12:39:34.704Z,2.17
2023-04-25T12:42:01.958Z,1.80
2023-04-25T12:44:28.538Z,1.63
2023-04-25T12:46:57.101Z,1.80
2023-04-25T12:49:24.328Z,1.38
2023-04-25T12:51:52.508Z,1.70
2023-04-25T12:54:19.048Z,1.75
2023-04-25T12:56:45.569Z,2.53
2023-04-25T12:59:12.142Z,2.03
2023-04-25T13:01:39.595Z,1.90
2023-04-25T13:04:06.734Z,1.70
2023-04-25T13:06:33.439Z,1.50
2023-04-25T13:09:00.010Z,1.73
2023-04-25T13:11:26.594Z,1.50
2023-04-25T13:13:53.514Z,1.80
2023-04-25T13:16:21.929Z,1.83
2023-04-25T13:18:49.069Z,1.95
2023-04-25T13:21:15.624Z,1.58
2023-04-25T13:23:43.812Z,1.60
2023-04-25T13:26:10.452Z,1.80
2023-04-25T13:28:37.005Z,2.17
2023-04-25T13:31:03.574Z,1.95
2023-04-25T13:33:30.110Z,1.55
2023-04-25T13:35:58.460Z,2.10
2023-04-25T13:38:26.659Z,2.05
2023-04-25T13:40:53.749Z,1.38
2023-04-25T13:43:22.783Z,1.55
2023-04-25T13:45:50.514Z,1.58
2023-04-25T13:48:17.253Z,2.17
2023-04-25T13:50:43.831Z,1.42
2023-04-25T13:53:10.505Z,1.48
2023-04-25T13:55:37.886Z,2.03
2023-04-25T13:58:09.087Z,1.70
2023-04-25T14:00:39.959Z,1.90
2023-04-25T14:03:09.067Z,1.92
2023-04-25T14:05:40.105Z,1.70
2023-04-25T14:08:08.122Z,1.70
2023-04-25T14:10:35.666Z,1.45
2023-04-25T14:13:04.190Z,1.65
2023-04-25T14:15:34.250Z,1.17
2023-04-25T14:18:01.788Z,1.35
2023-04-25T14:20:28.499Z,1.48
2023-04-25T14:22:56.998Z,1.45
2023-04-25T14:25:24.228Z,2.20
2023-04-25T14:27:51.196Z,1.70
2023-04-25T14:30:19.494Z,1.75
2023-04-25T14:32:46.661Z,1.80
2023-04-25T14:35:13.728Z,1.92
2023-04-25T14:37:40.464Z,1.83
2023-04-25T14:40:09.744Z,2.00
2023-04-25T14:42:36.470Z,2.13
2023-04-25T14:45:04.800Z,2.38
2023-04-25T14:47:31.381Z,2.00
2023-04-25T14:49:57.968Z,1.73
2023-04-25T14:52:24.958Z,1.77
2023-04-25T14:54:51.988Z,1.85
2023-04-25T14:57:18.494Z,1.75
2023-04-25T14:59:45.051Z,2.47
2023-04-25T15:02:11.793Z,8.40
2023-04-25T15:04:38.530Z,3.33
2023-04-25T15:07:05.700Z,2.78
2023-04-25T15:09:32.293Z,3.30
2023-04-25T15:11:59.353Z,2.45
2023-04-25T15:14:25.864Z,3.35
2023-04-25T15:16:52.576Z,2.30
2023-04-25T15:19:19.186Z,2.42
2023-04-25T15:21:45.756Z,1.75
2023-04-25T15:24:12.277Z,2.20
2023-04-25T15:26:38.796Z,1.83
2023-04-25T15:29:06.823Z,1.90
2023-04-25T15:31:33.531Z,1.27
2023-04-25T15:34:00.119Z,1.75
2023-04-25T15:36:26.698Z,1.63
2023-04-25T15:38:53.408Z,1.42
2023-04-25T15:41:19.948Z,2.00
2023-04-25T15:43:49.014Z,1.63
2023-04-25T15:46:16.118Z,1.77
2023-04-25T15:48:42.799Z,2.03
2023-04-25T15:51:10.561Z,1.80
2023-04-25T15:53:37.399Z,2.58
2023-04-25T15:56:04.654Z,1.52
2023-04-25T15:58:31.191Z,1.77
2023-04-25T16:00:57.840Z,1.25
2023-04-25T16:03:24.547Z,1.30
2023-04-25T16:05:51.320Z,1.83
2023-04-25T16:08:17.871Z,1.50
2023-04-25T16:10:44.434Z,1.50
2023-04-25T16:13:11.285Z,1.60
2023-04-25T16:15:38.049Z,1.60
2023-04-25T16:18:04.796Z,1.88
2023-04-25T16:20:31.379Z,1.45
2023-04-25T16:22:57.945Z,2.00
2023-04-25T16:25:24.529Z,1.55
2023-04-25T16:27:52.001Z,1.25
2023-04-25T16:30:18.555Z,1.60
2023-04-25T16:32:45.711Z,1.38
2023-04-25T16:35:12.426Z,1.80
2023-04-25T16:37:38.961Z,1.58
2023-04-25T16:40:08.948Z,1.20
2023-04-25T16:42:36.340Z,2.00
2023-04-25T16:45:05.005Z,1.95
2023-04-25T16:47:32.315Z,1.80
2023-04-25T16:50:00.583Z,2.00
2023-04-25T16:52:27.423Z,2.38
2023-04-25T16:54:53.996Z,1.90
2023-04-25T16:57:21.170Z,1.85
2023-04-25T16:59:47.943Z,1.92
2023-04-25T17:02:14.774Z,1.65
2023-04-25T17:04:41.787Z,1.75
2023-04-25T17:07:08.984Z,1.45
2023-04-25T17:09:36.325Z,1.90
2023-04-25T17:12:04.273Z,2.10
2023-04-25T17:14:32.976Z,1.90
2023-04-25T17:16:59.616Z,1.90
2023-04-25T17:19:26.296Z,1.33
2023-04-25T17:21:52.915Z,1.65
2023-04-25T17:24:21.802Z,1.50
2023-04-25T17:26:48.960Z,1.63
2023-04-25T17:29:15.859Z,1.80
2023-04-25T17:31:42.647Z,1.65
2023-04-25T17:34:09.889Z,2.28
2023-04-25T17:36:36.476Z,1.83
2023-04-25T17:39:06.264Z,1.60
2023-04-25T17:41:32.859Z,1.95
2023-04-25T17:43:59.454Z,2.00
2023-04-25T17:46:27.446Z,2.10
2023-04-25T17:48:54.459Z,1.65
2023-04-25T17:51:21.355Z,1.48
2023-04-25T17:53:48.019Z,1.60
2023-04-25T17:56:25.977Z,1.30
2023-04-25T17:58:54.221Z,1.30
2023-04-25T18:01:21.367Z,2.38
2023-04-25T18:03:49.977Z,1.92
2023-04-25T18:06:17.871Z,1.80
2023-04-25T18:08:44.856Z,1.83
2023-04-25T18:11:12.195Z,1.42
2023-04-25T18:13:39.402Z,1.55
2023-04-25T18:16:06.653Z,1.38
2023-04-25T18:18:35.680Z,1.60
2023-04-25T18:21:05.116Z,2.03
2023-04-25T18:23:35.466Z,1.40
2023-04-25T18:26:02.798Z,1.38
2023-04-25T18:28:29.618Z,1.52
2023-04-25T18:30:56.784Z,1.88
2023-04-25T18:33:23.605Z,2.10
2023-04-25T18:35:58.671Z,2.13
2023-04-25T18:41:04.424Z,2.10
2023-04-25T18:43:37.040Z,1.90
2023-04-25T18:46:05.744Z,1.95
2023-04-25T18:48:32.402Z,1.80
2023-04-25T18:50:59.000Z,2.28
2023-04-25T18:53:25.544Z,1.85
2023-04-25T18:55:52.092Z,2.20
2023-04-25T18:58:18.640Z,2.38
2023-04-25T19:00:45.270Z,2.40
2023-04-25T19:03:12.615Z,2.63
2023-04-25T19:05:39.288Z,2.22
2023-04-25T19:08:06.054Z,2.13
2023-04-25T19:10:32.633Z,2.45
2023-04-25T19:12:59.141Z,2.42
2023-04-25T19:15:26.021Z,2.38
2023-04-25T19:17:52.702Z,2.30
2023-04-25T19:20:20.807Z,2.63
2023-04-25T19:22:47.453Z,2.60
2023-04-25T19:25:13.949Z,2.70
2023-04-25T19:27:40.498Z,2.33
2023-04-25T19:30:10.753Z,2.80
2023-04-25T19:32:38.342Z,2.95
2023-04-25T19:35:05.322Z,2.40
2023-04-25T19:37:32.183Z,2.90
2023-04-25T19:39:58.692Z,3.10
2023-04-25T19:42:25.992Z,4.53
2023-04-25T19:44:52.648Z,4.07
2023-04-25T19:47:19.199Z,4.40
2023-04-25T19:49:45.797Z,4.20
2023-04-25T19:52:14.933Z,3.20
2023-04-25T19:54:45.381Z,3.92
2023-04-25T19:57:12.712Z,4.15
2023-04-25T19:59:39.882Z,3.20
2023-04-25T20:02:09.151Z,3.67
2023-04-25T20:04:35.886Z,4.75
2023-04-25T20:07:02.465Z,3.55
2023-04-25T20:09:29.013Z,2.50
2023-04-25T20:11:55.625Z,2.35
2023-04-25T20:14:22.240Z,2.65
2023-04-25T20:16:48.897Z,2.97
2023-04-25T20:19:15.597Z,3.00
2023-04-25T20:21:42.112Z,3.35
2023-04-25T20:24:08.698Z,3.60
2023-04-25T20:26:35.635Z,4.65
2023-04-25T20:29:02.204Z,3.75
2023-04-25T20:31:29.789Z,3.28
2023-04-25T20:33:56.368Z,4.45
2023-04-25T20:36:22.918Z,4.93
2023-04-25T20:38:49.545Z,3.15
2023-04-25T20:41:16.207Z,3.10
2023-04-25T20:43:42.788Z,3.08
2023-04-25T20:46:10.330Z,3.70
2023-04-25T20:48:37.034Z,4.40
2023-04-25T20:51:04.086Z,4.35
2023-04-25T20:53:30.630Z,3.83
2023-04-25T20:55:57.459Z,3.50
2023-04-25T20:58:24.045Z,3.17
2023-04-25T21:00:51.319Z,2.83
2023-04-25T21:03:18.110Z,3.25
2023-04-25T21:05:44.864Z,3.53
2023-04-25T21:08:11.424Z,4.22
2023-04-25T21:10:38.054Z,4.63
2023-04-25T21:13:04.689Z,2.95
2023-04-25T21:15:31.288Z,3.58
2023-04-25T21:17:57.873Z,3.42
2023-04-25T21:20:24.478Z,2.88
2023-04-25T21:22:53.799Z,3.50
2023-04-25T21:25:29.344Z,3.60
2023-04-25T21:27:56.279Z,3.83
2023-04-25T21:30:24.418Z,3.40
2023-04-25T21:32:51.993Z,3.53
2023-04-25T21:35:20.411Z,3.05
2023-04-25T21:37:47.308Z,3.80
2023-04-25T21:40:14.416Z,3.15
2023-04-25T21:42:42.330Z,3.80
2023-04-25T21:45:10.114Z,4.40
2023-04-25T21:47:37.004Z,3.30
2023-04-25T21:50:04.180Z,3.10
2023-04-25T21:52:31.407Z,3.17
2023-04-25T21:54:57.906Z,3.30
2023-04-25T21:57:24.424Z,2.85
2023-04-25T21:59:50.952Z,3.28
2023-04-25T22:02:17.568Z,2.92
2023-04-25T22:04:47.374Z,2.42
2023-04-25T22:07:14.811Z,3.08
2023-04-25T22:09:53.739Z,2.90
2023-04-25T22:12:21.473Z,2.95
2023-04-25T22:14:48.944Z,2.90
2023-04-25T22:17:15.577Z,3.28
2023-04-25T22:19:43.188Z,3.22
2023-04-25T22:22:09.720Z,3.35
2023-04-25T22:24:36.244Z,4.10
2023-04-25T22:27:02.774Z,2.65
2023-04-25T22:29:29.358Z,2.90
2023-04-25T22:31:56.024Z,3.15
2023-04-25T22:34:22.663Z,3.90
2023-04-25T22:36:49.525Z,3.35
2023-04-25T22:39:16.996Z,4.05
2023-04-25T22:41:43.517Z,3.67
2023-04-25T22:44:11.194Z,2.92
2023-04-25T22:46:37.834Z,3.53
2023-04-25T22:49:04.864Z,3.65
2023-04-25T22:51:31.656Z,3.80
2023-04-25T22:53:58.162Z,3.20
2023-04-25T22:56:24.797Z,3.33
2023-04-25T22:58:51.729Z,4.25
2023-04-25T23:01:19.431Z,4.35
2023-04-25T23:03:46.378Z,3.75
2023-04-25T23:06:13.681Z,3.72
2023-04-25T23:08:41.786Z,4.28
2023-04-25T23:11:08.645Z,4.15
2023-04-25T23:13:37.054Z,3.90
2023-04-25T23:16:10.881Z,4.55
2023-04-25T23:18:38.146Z,3.85
2023-04-25T23:24:58.166Z,4.22
2023-04-25T23:27:24.705Z,3.92
2023-04-25T23:29:54.814Z,4.63
2023-04-25T23:32:22.276Z,3.63
2023-04-25T23:34:49.424Z,4.45
2023-04-25T23:37:16.109Z,3.35
2023-04-25T23:39:48.757Z,3.42
2023-04-25T23:42:15.304Z,3.47
2023-04-25T23:44:42.797Z,4.45
2023-04-25T23:47:09.374Z,3.70
2023-04-25T23:49:36.172Z,4.07
2023-04-25T23:52:03.798Z,3.75
2023-04-25T23:54:30.297Z,4.20
2023-04-25T23:56:56.870Z,4.10
2023-04-25T23:59:23.366Z,4.30
